VIR810P EGCC-EGPH
Flight info
| Callsign | VIR810P |
|---|---|
| Flight time | 0h 37m |
| Altitude | 24000 |
| Route | DESIG DCT DOMIG DCT ULSAX N601 INPIP |
| Aircraft | A35K/H-SDE2E3GHIJ3J4J5LM1ORWXY/LB1D1 |
Departure
| Time | 2026-04-25 11:02 |
|---|---|
| Airport | Manchester Airport (EGCC) |
Arrival
| Time | 2026-04-25 11:40 |
|---|---|
| Airport | Edinburgh Airport (EGPH) |
| Time | Latitude | Longitude | Altitude | Speed | Heading |
|---|---|---|---|---|---|
| 2026-04-25 09:56 | 53.36701 | -2.28476 | 261 ft | 0 kts | 135° |
| 2026-04-25 10:47 | 53.36707 | -2.28486 | 261 ft | 4 kts | 135° |
| 2026-04-25 10:47 | 53.36726 | -2.28518 | 262 ft | 4 kts | 135° |
| 2026-04-25 10:47 | 53.36742 | -2.28545 | 265 ft | 3 kts | 136° |
| 2026-04-25 10:47 | 53.36761 | -2.28559 | 267 ft | 4 kts | 204° |
| 2026-04-25 10:48 | 53.36780 | -2.28534 | 262 ft | 4 kts | 224° |
| 2026-04-25 10:48 | 53.36800 | -2.28503 | 265 ft | 4 kts | 224° |
| 2026-04-25 10:48 | 53.36811 | -2.28485 | 265 ft | 0 kts | 224° |
| 2026-04-25 10:51 | 53.36810 | -2.28486 | 265 ft | 1 kts | 224° |
| 2026-04-25 10:52 | 53.36790 | -2.28518 | 264 ft | 2 kts | 224° |
| 2026-04-25 10:52 | 53.36766 | -2.28557 | 266 ft | 8 kts | 224° |
| 2026-04-25 10:52 | 53.36715 | -2.28641 | 261 ft | 11 kts | 224° |
| 2026-04-25 10:52 | 53.36664 | -2.28725 | 261 ft | 12 kts | 224° |
| 2026-04-25 10:53 | 53.36599 | -2.28770 | 261 ft | 9 kts | 162° |
| 2026-04-25 10:53 | 53.36537 | -2.28687 | 261 ft | 11 kts | 135° |
| 2026-04-25 10:53 | 53.36473 | -2.28577 | 261 ft | 16 kts | 134° |
| 2026-04-25 10:53 | 53.36404 | -2.28412 | 261 ft | 14 kts | 118° |
| 2026-04-25 10:54 | 53.36342 | -2.28281 | 261 ft | 17 kts | 134° |
| 2026-04-25 10:54 | 53.36297 | -2.28203 | 261 ft | 9 kts | 135° |
| 2026-04-25 10:54 | 53.36212 | -2.28061 | 261 ft | 15 kts | 135° |
| 2026-04-25 10:54 | 53.36127 | -2.27936 | 261 ft | 14 kts | 142° |
| 2026-04-25 10:55 | 53.36098 | -2.27899 | 261 ft | 4 kts | 144° |
| 2026-04-25 10:55 | 53.36058 | -2.27892 | 261 ft | 8 kts | 196° |
| 2026-04-25 10:55 | 53.35987 | -2.27890 | 261 ft | 13 kts | 156° |
| 2026-04-25 10:55 | 53.35896 | -2.27855 | 261 ft | 13 kts | 178° |
| 2026-04-25 10:56 | 53.35777 | -2.27871 | 255 ft | 17 kts | 186° |
| 2026-04-25 10:56 | 53.35691 | -2.27859 | 250 ft | 11 kts | 143° |
| 2026-04-25 10:56 | 53.35690 | -2.27776 | 250 ft | 9 kts | 63° |
| 2026-04-25 10:56 | 53.35718 | -2.27673 | 253 ft | 10 kts | 95° |
| 2026-04-25 10:57 | 53.35661 | -2.27579 | 252 ft | 15 kts | 141° |
| 2026-04-25 10:57 | 53.35627 | -2.27450 | 252 ft | 10 kts | 66° |
| 2026-04-25 10:57 | 53.35667 | -2.27357 | 259 ft | 8 kts | 51° |
| 2026-04-25 10:57 | 53.35704 | -2.27280 | 261 ft | 11 kts | 51° |
| 2026-04-25 10:58 | 53.35763 | -2.27158 | 261 ft | 16 kts | 51° |
| 2026-04-25 10:58 | 53.35829 | -2.27000 | 262 ft | 14 kts | 58° |
| 2026-04-25 10:58 | 53.35888 | -2.26862 | 262 ft | 17 kts | 54° |
| 2026-04-25 10:58 | 53.35951 | -2.26714 | 262 ft | 15 kts | 52° |
| 2026-04-25 10:59 | 53.36010 | -2.26588 | 262 ft | 9 kts | 51° |
| 2026-04-25 10:59 | 53.36057 | -2.26491 | 262 ft | 14 kts | 51° |
| 2026-04-25 10:59 | 53.36128 | -2.26344 | 261 ft | 19 kts | 51° |
| 2026-04-25 10:59 | 53.36195 | -2.26239 | 261 ft | 10 kts | 42° |
| 2026-04-25 11:00 | 53.36252 | -2.26130 | 261 ft | 15 kts | 57° |
| 2026-04-25 11:00 | 53.36275 | -2.25978 | 261 ft | 14 kts | 75° |
| 2026-04-25 11:00 | 53.36280 | -2.25817 | 263 ft | 10 kts | 108° |
| 2026-04-25 11:00 | 53.36253 | -2.25763 | 266 ft | 6 kts | 146° |
| 2026-04-25 11:01 | 53.36211 | -2.25782 | 266 ft | 9 kts | 219° |
| 2026-04-25 11:01 | 53.36178 | -2.25837 | 265 ft | 3 kts | 228° |
| 2026-04-25 11:01 | 53.36177 | -2.25839 | 265 ft | 0 kts | 228° |
| 2026-04-25 11:01 | 53.36175 | -2.25842 | 265 ft | 2 kts | 228° |
| 2026-04-25 11:02 | 53.36134 | -2.25923 | 265 ft | 23 kts | 230° |
| 2026-04-25 11:02 | 53.35833 | -2.26547 | 276 ft | 115 kts | 231° |
| 2026-04-25 11:02 | 53.35145 | -2.27959 | 385 ft | 185 kts | 230° |
| 2026-04-25 11:02 | 53.34340 | -2.29633 | 1549 ft | 181 kts | 234° |
| 2026-04-25 11:03 | 53.33792 | -2.31589 | 2268 ft | 200 kts | 255° |
| 2026-04-25 11:03 | 53.33900 | -2.34032 | 2692 ft | 225 kts | 291° |
| 2026-04-25 11:03 | 53.34834 | -2.36214 | 3323 ft | 240 kts | 316° |
| 2026-04-25 11:03 | 53.36154 | -2.38096 | 3988 ft | 257 kts | 321° |
| 2026-04-25 11:04 | 53.37567 | -2.40002 | 4916 ft | 263 kts | 321° |
| 2026-04-25 11:04 | 53.38993 | -2.41965 | 5848 ft | 266 kts | 320° |
| 2026-04-25 11:04 | 53.40483 | -2.43815 | 6798 ft | 269 kts | 330° |
| 2026-04-25 11:04 | 53.41617 | -2.44679 | 7398 ft | 271 kts | 339° |
| 2026-04-25 11:05 | 53.44099 | -2.45561 | 8584 ft | 278 kts | 0° |
| 2026-04-25 11:05 | 53.45983 | -2.44780 | 9498 ft | 284 kts | 26° |
| 2026-04-25 11:05 | 53.47498 | -2.42622 | 10374 ft | 291 kts | 52° |
| 2026-04-25 11:05 | 53.48333 | -2.39437 | 10833 ft | 312 kts | 78° |
| 2026-04-25 11:06 | 53.48607 | -2.35697 | 11189 ft | 333 kts | 85° |
| 2026-04-25 11:06 | 53.48786 | -2.31757 | 11594 ft | 349 kts | 85° |
| 2026-04-25 11:06 | 53.48984 | -2.27648 | 12226 ft | 357 kts | 85° |
| 2026-04-25 11:06 | 53.49228 | -2.23463 | 12962 ft | 361 kts | 82° |
| 2026-04-25 11:07 | 53.49798 | -2.19323 | 13705 ft | 365 kts | 71° |
| 2026-04-25 11:07 | 53.50956 | -2.15501 | 14375 ft | 369 kts | 53° |
| 2026-04-25 11:07 | 53.52792 | -2.12580 | 15032 ft | 371 kts | 31° |
| 2026-04-25 11:07 | 53.55176 | -2.10967 | 15717 ft | 372 kts | 10° |
| 2026-04-25 11:08 | 53.57758 | -2.10432 | 16397 ft | 375 kts | 2° |
| 2026-04-25 11:08 | 53.60385 | -2.10447 | 17075 ft | 379 kts | 356° |
| 2026-04-25 11:08 | 53.63024 | -2.10908 | 17753 ft | 383 kts | 350° |
| 2026-04-25 11:08 | 53.65690 | -2.11484 | 18418 ft | 387 kts | 354° |
| 2026-04-25 11:09 | 53.68366 | -2.11604 | 18996 ft | 392 kts | 0° |
| 2026-04-25 11:09 | 53.71110 | -2.11428 | 19551 ft | 396 kts | 1° |
| 2026-04-25 11:09 | 53.73878 | -2.11548 | 20104 ft | 400 kts | 353° |
| 2026-04-25 11:09 | 53.76620 | -2.12434 | 20640 ft | 403 kts | 345° |
| 2026-04-25 11:10 | 53.79324 | -2.13757 | 21207 ft | 406 kts | 340° |
| 2026-04-25 11:10 | 53.81103 | -2.14800 | 21589 ft | 408 kts | 338° |
| 2026-04-25 11:10 | 53.84665 | -2.17148 | 22354 ft | 412 kts | 336° |
| 2026-04-25 11:10 | 53.87326 | -2.19012 | 22899 ft | 415 kts | 335° |
| 2026-04-25 11:11 | 53.89973 | -2.20892 | 23434 ft | 419 kts | 335° |
| 2026-04-25 11:11 | 53.92681 | -2.22804 | 23928 ft | 422 kts | 335° |
| 2026-04-25 11:11 | 53.95405 | -2.24710 | 24157 ft | 425 kts | 336° |
| 2026-04-25 11:11 | 53.98199 | -2.26650 | 24208 ft | 440 kts | 336° |
| 2026-04-25 11:12 | 54.01065 | -2.28631 | 24208 ft | 446 kts | 336° |
| 2026-04-25 11:12 | 54.03948 | -2.30611 | 24208 ft | 447 kts | 336° |
| 2026-04-25 11:12 | 54.06831 | -2.32595 | 24206 ft | 447 kts | 336° |
| 2026-04-25 11:12 | 54.09712 | -2.34585 | 24206 ft | 447 kts | 336° |
| 2026-04-25 11:13 | 54.12596 | -2.36585 | 24203 ft | 447 kts | 336° |
| 2026-04-25 11:13 | 54.15443 | -2.38563 | 24203 ft | 447 kts | 336° |
| 2026-04-25 11:13 | 54.18322 | -2.40561 | 24202 ft | 447 kts | 336° |
| 2026-04-25 11:13 | 54.21203 | -2.42563 | 24204 ft | 447 kts | 336° |
| 2026-04-25 11:14 | 54.24089 | -2.44573 | 24205 ft | 446 kts | 336° |
| 2026-04-25 11:14 | 54.26961 | -2.46576 | 24203 ft | 445 kts | 336° |
| 2026-04-25 11:14 | 54.29823 | -2.48575 | 24203 ft | 444 kts | 336° |
| 2026-04-25 11:14 | 54.32688 | -2.50578 | 24203 ft | 444 kts | 336° |
| 2026-04-25 11:15 | 54.35552 | -2.52585 | 24202 ft | 444 kts | 336° |
| 2026-04-25 11:15 | 54.38410 | -2.54590 | 24203 ft | 444 kts | 336° |
| 2026-04-25 11:15 | 54.41271 | -2.56600 | 24204 ft | 444 kts | 336° |
| 2026-04-25 11:15 | 54.44127 | -2.58606 | 24203 ft | 444 kts | 336° |
| 2026-04-25 11:16 | 54.49847 | -2.62616 | 24202 ft | 443 kts | 337° |
| 2026-04-25 11:16 | 54.52698 | -2.64617 | 24200 ft | 442 kts | 337° |
| 2026-04-25 11:16 | 54.55548 | -2.66629 | 24201 ft | 442 kts | 337° |
| 2026-04-25 11:17 | 54.58397 | -2.68650 | 24199 ft | 442 kts | 336° |
| 2026-04-25 11:17 | 54.61206 | -2.70648 | 24201 ft | 444 kts | 336° |
| 2026-04-25 11:17 | 54.64062 | -2.72686 | 24200 ft | 446 kts | 336° |
| 2026-04-25 11:17 | 54.66936 | -2.74745 | 24201 ft | 447 kts | 336° |
| 2026-04-25 11:18 | 54.69807 | -2.76805 | 24202 ft | 447 kts | 336° |
| 2026-04-25 11:18 | 54.72683 | -2.78865 | 24206 ft | 447 kts | 336° |
| 2026-04-25 11:18 | 54.75550 | -2.80917 | 24205 ft | 445 kts | 337° |
| 2026-04-25 11:18 | 54.78409 | -2.82967 | 24205 ft | 445 kts | 337° |
| 2026-04-25 11:19 | 54.81268 | -2.85019 | 24205 ft | 444 kts | 337° |
| 2026-04-25 11:19 | 54.84125 | -2.87072 | 24206 ft | 444 kts | 337° |
| 2026-04-25 11:19 | 54.86984 | -2.89132 | 24205 ft | 444 kts | 337° |
| 2026-04-25 11:19 | 54.89842 | -2.91189 | 24206 ft | 444 kts | 337° |
| 2026-04-25 11:20 | 54.92698 | -2.93253 | 24208 ft | 444 kts | 337° |
| 2026-04-25 11:20 | 54.95519 | -2.95297 | 24208 ft | 444 kts | 337° |
| 2026-04-25 11:20 | 54.98372 | -2.97366 | 24208 ft | 444 kts | 337° |
| 2026-04-25 11:20 | 55.01206 | -2.99423 | 23973 ft | 437 kts | 337° |
| 2026-04-25 11:21 | 55.04009 | -3.01462 | 22980 ft | 438 kts | 337° |
| 2026-04-25 11:21 | 55.06829 | -3.03515 | 22126 ft | 438 kts | 336° |
| 2026-04-25 11:21 | 55.09630 | -3.05557 | 21446 ft | 432 kts | 336° |
| 2026-04-25 11:21 | 55.12392 | -3.07574 | 20785 ft | 428 kts | 336° |
| 2026-04-25 11:22 | 55.15126 | -3.09572 | 20117 ft | 423 kts | 336° |
| 2026-04-25 11:22 | 55.16914 | -3.10877 | 19704 ft | 421 kts | 336° |
| 2026-04-25 11:22 | 55.20501 | -3.13507 | 18850 ft | 421 kts | 336° |
| 2026-04-25 11:22 | 55.23185 | -3.15481 | 18332 ft | 413 kts | 336° |
| 2026-04-25 11:23 | 55.25784 | -3.17394 | 18052 ft | 397 kts | 336° |
| 2026-04-25 11:23 | 55.28292 | -3.19221 | 17764 ft | 382 kts | 337° |
| 2026-04-25 11:23 | 55.30834 | -3.20205 | 17460 ft | 371 kts | 356° |
| 2026-04-25 11:23 | 55.33380 | -3.20015 | 17226 ft | 359 kts | 4° |
| 2026-04-25 11:24 | 55.35821 | -3.19605 | 17010 ft | 346 kts | 4° |
| 2026-04-25 11:24 | 55.38172 | -3.19200 | 16800 ft | 333 kts | 4° |
| 2026-04-25 11:24 | 55.40451 | -3.18820 | 16477 ft | 326 kts | 4° |
| 2026-04-25 11:24 | 55.42694 | -3.18454 | 16059 ft | 321 kts | 3° |
| 2026-04-25 11:25 | 55.44906 | -3.18101 | 15633 ft | 318 kts | 4° |
| 2026-04-25 11:25 | 55.47100 | -3.17753 | 15194 ft | 315 kts | 3° |
| 2026-04-25 11:25 | 55.49261 | -3.17410 | 14681 ft | 307 kts | 3° |
| 2026-04-25 11:25 | 55.51375 | -3.17079 | 14139 ft | 308 kts | 3° |
| 2026-04-25 11:26 | 55.53503 | -3.16744 | 13679 ft | 305 kts | 3° |
| 2026-04-25 11:26 | 55.55604 | -3.16413 | 13192 ft | 302 kts | 3° |
| 2026-04-25 11:26 | 55.57692 | -3.16084 | 12714 ft | 300 kts | 3° |
| 2026-04-25 11:26 | 55.59764 | -3.15758 | 12253 ft | 297 kts | 3° |
| 2026-04-25 11:27 | 55.61791 | -3.15436 | 12059 ft | 286 kts | 3° |
| 2026-04-25 11:27 | 55.63739 | -3.15134 | 11865 ft | 275 kts | 2° |
| 2026-04-25 11:27 | 55.65573 | -3.15489 | 11678 ft | 260 kts | 338° |
| 2026-04-25 11:27 | 55.66603 | -3.16496 | 11528 ft | 253 kts | 320° |
| 2026-04-25 11:28 | 55.67820 | -3.19880 | 11073 ft | 249 kts | 283° |
| 2026-04-25 11:28 | 55.67956 | -3.22923 | 10736 ft | 248 kts | 271° |
| 2026-04-25 11:28 | 55.67909 | -3.25969 | 10398 ft | 247 kts | 269° |
| 2026-04-25 11:28 | 55.67840 | -3.29007 | 10035 ft | 246 kts | 269° |
| 2026-04-25 11:29 | 55.67769 | -3.32028 | 9666 ft | 244 kts | 269° |
| 2026-04-25 11:29 | 55.67701 | -3.35034 | 9292 ft | 243 kts | 269° |
| 2026-04-25 11:29 | 55.67635 | -3.38032 | 8905 ft | 242 kts | 269° |
| 2026-04-25 11:29 | 55.67576 | -3.41007 | 8613 ft | 241 kts | 269° |
| 2026-04-25 11:30 | 55.67522 | -3.43936 | 8333 ft | 240 kts | 269° |
| 2026-04-25 11:30 | 55.67464 | -3.46881 | 8058 ft | 238 kts | 269° |
| 2026-04-25 11:30 | 55.67408 | -3.49803 | 7777 ft | 237 kts | 269° |
| 2026-04-25 11:30 | 55.67356 | -3.52719 | 7508 ft | 236 kts | 269° |
| 2026-04-25 11:31 | 55.67321 | -3.55623 | 7234 ft | 235 kts | 271° |
| 2026-04-25 11:31 | 55.67698 | -3.58414 | 6969 ft | 233 kts | 294° |
| 2026-04-25 11:31 | 55.68439 | -3.60946 | 6701 ft | 230 kts | 298° |
| 2026-04-25 11:31 | 55.69227 | -3.63403 | 6414 ft | 226 kts | 299° |
| 2026-04-25 11:32 | 55.69992 | -3.65764 | 6139 ft | 222 kts | 299° |
| 2026-04-25 11:32 | 55.70752 | -3.68106 | 5896 ft | 217 kts | 299° |
| 2026-04-25 11:32 | 55.71498 | -3.70406 | 5666 ft | 211 kts | 299° |
| 2026-04-25 11:32 | 55.72360 | -3.72480 | 5416 ft | 211 kts | 319° |
| 2026-04-25 11:33 | 55.73673 | -3.73604 | 5216 ft | 210 kts | 342° |
| 2026-04-25 11:33 | 55.75081 | -3.74232 | 5009 ft | 208 kts | 344° |
| 2026-04-25 11:33 | 55.76492 | -3.74836 | 4834 ft | 209 kts | 344° |
| 2026-04-25 11:33 | 55.77905 | -3.75450 | 4660 ft | 209 kts | 344° |
| 2026-04-25 11:34 | 55.79354 | -3.75745 | 4443 ft | 213 kts | 6° |
| 2026-04-25 11:34 | 55.80742 | -3.74850 | 4293 ft | 214 kts | 26° |
| 2026-04-25 11:34 | 55.82032 | -3.73545 | 4134 ft | 213 kts | 28° |
| 2026-04-25 11:34 | 55.83121 | -3.71896 | 3984 ft | 201 kts | 49° |
| 2026-04-25 11:35 | 55.83896 | -3.69878 | 3951 ft | 197 kts | 58° |
| 2026-04-25 11:35 | 55.84599 | -3.67793 | 3921 ft | 195 kts | 58° |
| 2026-04-25 11:35 | 55.85304 | -3.65747 | 3720 ft | 193 kts | 57° |
| 2026-04-25 11:35 | 55.86007 | -3.63702 | 3466 ft | 192 kts | 58° |
| 2026-04-25 11:36 | 55.86465 | -3.62360 | 3265 ft | 191 kts | 58° |
| 2026-04-25 11:36 | 55.87151 | -3.60346 | 2986 ft | 187 kts | 58° |
| 2026-04-25 11:36 | 55.88002 | -3.57845 | 2653 ft | 170 kts | 59° |
| 2026-04-25 11:36 | 55.88604 | -3.56080 | 2429 ft | 165 kts | 59° |
| 2026-04-25 11:37 | 55.89001 | -3.54910 | 2276 ft | 162 kts | 60° |
| 2026-04-25 11:37 | 55.89578 | -3.53214 | 2060 ft | 158 kts | 60° |
| 2026-04-25 11:37 | 55.90142 | -3.51552 | 1839 ft | 155 kts | 60° |
| 2026-04-25 11:37 | 55.90700 | -3.49911 | 1624 ft | 154 kts | 61° |
| 2026-04-25 11:38 | 55.91250 | -3.48290 | 1406 ft | 148 kts | 61° |
| 2026-04-25 11:38 | 55.91762 | -3.46784 | 1200 ft | 136 kts | 62° |
| 2026-04-25 11:38 | 55.92223 | -3.45427 | 1018 ft | 123 kts | 62° |
| 2026-04-25 11:38 | 55.92651 | -3.44164 | 841 ft | 117 kts | 60° |
| 2026-04-25 11:39 | 55.93070 | -3.42929 | 693 ft | 115 kts | 60° |
| 2026-04-25 11:39 | 55.93486 | -3.41707 | 544 ft | 113 kts | 60° |
| 2026-04-25 11:39 | 55.93896 | -3.40502 | 396 ft | 114 kts | 59° |
| 2026-04-25 11:39 | 55.94295 | -3.39300 | 240 ft | 112 kts | 57° |
| 2026-04-25 11:40 | 55.94712 | -3.38099 | 133 ft | 113 kts | 60° |
| 2026-04-25 11:40 | 55.95077 | -3.37022 | 116 ft | 78 kts | 58° |
| 2026-04-25 11:40 | 55.95249 | -3.36516 | 114 ft | 35 kts | 59° |
| 2026-04-25 11:40 | 55.95370 | -3.36161 | 112 ft | 33 kts | 58° |
| 2026-04-25 11:41 | 55.95479 | -3.35838 | 114 ft | 24 kts | 59° |
| 2026-04-25 11:41 | 55.95537 | -3.35663 | 115 ft | 15 kts | 58° |
| 2026-04-25 11:41 | 55.95554 | -3.35527 | 116 ft | 10 kts | 114° |
| 2026-04-25 11:41 | 55.95500 | -3.35445 | 117 ft | 12 kts | 146° |
| 2026-04-25 11:42 | 55.95419 | -3.35456 | 119 ft | 15 kts | 228° |
| 2026-04-25 11:42 | 55.95350 | -3.35644 | 119 ft | 21 kts | 238° |
| 2026-04-25 11:42 | 55.95285 | -3.35834 | 117 ft | 18 kts | 239° |
| 2026-04-25 11:42 | 55.95257 | -3.35920 | 117 ft | 2 kts | 238° |
| 2026-04-25 11:43 | 55.95249 | -3.35943 | 117 ft | 4 kts | 238° |
| 2026-04-25 11:43 | 55.95222 | -3.36018 | 117 ft | 11 kts | 238° |
| 2026-04-25 11:43 | 55.95185 | -3.36128 | 120 ft | 10 kts | 237° |
| 2026-04-25 11:43 | 55.95137 | -3.36152 | 119 ft | 7 kts | 150° |
| 2026-04-25 11:44 | 55.95106 | -3.36058 | 117 ft | 8 kts | 110° |
| 2026-04-25 11:44 | 55.95081 | -3.35958 | 118 ft | 5 kts | 125° |
| 2026-04-25 11:44 | 55.95059 | -3.35962 | 118 ft | 4 kts | 204° |
| 2026-04-25 11:44 | 55.95043 | -3.35994 | 117 ft | 3 kts | 233° |
| 2026-04-25 11:45 | 55.95032 | -3.36027 | 119 ft | 2 kts | 242° |
| 2026-04-25 11:45 | 55.95027 | -3.36045 | 118 ft | 0 kts | 244° |